createdAt,value
2022-09-12T00:00:34.912Z,12.40
2022-09-12T00:06:02.271Z,13.20
2022-09-12T00:11:11.199Z,15.20
2022-09-12T00:16:20.770Z,15.80
2022-09-12T00:21:27.813Z,12.30
2022-09-12T00:38:07.238Z,15.50
2022-09-12T00:48:33.611Z,14.80
2022-09-12T00:53:43.522Z,16.40
2022-09-12T00:59:11.194Z,13.40
2022-09-12T01:04:31.502Z,14.00
2022-09-12T01:09:54.363Z,13.80
2022-09-12T01:15:03.612Z,14.20
2022-09-12T01:20:42.641Z,11.20
2022-09-12T01:26:51.521Z,17.20
2022-09-12T01:32:18.406Z,12.10
2022-09-12T01:38:22.128Z,9.90
2022-09-12T01:43:55.137Z,13.70
2022-09-12T01:49:41.739Z,13.70
2022-09-12T01:55:26.807Z,13.20
2022-09-12T02:01:00.794Z,13.20
2022-09-12T02:06:54.169Z,10.90
2022-09-12T02:12:48.667Z,12.60
2022-09-12T02:18:42.936Z,13.30
2022-09-12T02:24:08.913Z,16.40
2022-09-12T02:29:49.968Z,18.70
2022-09-12T02:35:01.904Z,18.50
2022-09-12T02:40:12.704Z,15.00
2022-09-12T02:45:24.926Z,25.90
2022-09-12T02:50:36.712Z,20.60
2022-09-12T02:55:46.574Z,19.60
2022-09-12T03:01:26.216Z,19.60
2022-09-12T03:06:59.866Z,18.90
2022-09-12T03:12:36.445Z,21.00
2022-09-12T03:18:17.882Z,17.80
2022-09-12T03:24:06.747Z,21.50
2022-09-12T03:29:16.238Z,22.50
2022-09-12T03:34:24.917Z,21.90
2022-09-12T03:39:31.831Z,19.90
2022-09-12T03:49:43.976Z,18.20
2022-09-12T03:59:56.154Z,20.50
2022-09-12T04:05:03.164Z,21.30
2022-09-12T04:10:10.782Z,21.10
2022-09-12T04:15:17.661Z,23.30
2022-09-12T04:20:24.693Z,25.80
2022-09-12T04:25:31.594Z,28.90
2022-09-12T04:33:38.114Z,27.30
2022-09-12T04:38:46.352Z,22.80
2022-09-12T04:43:58.325Z,25.70
2022-09-12T04:49:05.962Z,25.80
2022-09-12T04:54:16.288Z,25.40
2022-09-12T04:59:23.933Z,29.60
2022-09-12T05:04:31.856Z,26.10
2022-09-12T05:09:39.047Z,29.90
2022-09-12T05:14:46.611Z,22.80
2022-09-12T05:19:53.528Z,21.90
2022-09-12T05:30:06.358Z,15.30
2022-09-12T05:35:13.788Z,15.80
2022-09-12T05:40:21.839Z,9.10
2022-09-12T05:45:28.690Z,13.20
2022-09-12T05:50:35.834Z,12.00
2022-09-12T05:55:42.934Z,10.10
2022-09-12T06:00:50.565Z,6.10
2022-09-12T06:05:57.463Z,11.60
2022-09-12T06:16:12.741Z,8.20
2022-09-12T06:21:19.724Z,5.70
2022-09-12T06:31:35.770Z,7.90
2022-09-12T06:36:44.211Z,7.20
2022-09-12T06:41:52.124Z,6.80
2022-09-12T06:46:58.964Z,6.40
2022-09-12T06:57:11.637Z,5.70
2022-09-12T07:02:19.845Z,7.10
2022-09-12T07:07:26.796Z,9.20
2022-09-12T07:17:39.000Z,4.80
2022-09-12T07:22:47.066Z,7.20
2022-09-12T07:27:55.517Z,5.40
2022-09-12T07:33:03.756Z,5.70
2022-09-12T07:38:10.989Z,5.40
2022-09-12T07:43:17.843Z,5.60
2022-09-12T07:48:25.221Z,4.90
2022-09-12T07:53:37.115Z,6.60
2022-09-12T07:58:44.873Z,3.90
2022-09-12T08:03:55.638Z,6.40
2022-09-12T08:09:03.068Z,6.90
2022-09-12T08:14:10.245Z,5.70
2022-09-12T08:19:17.135Z,6.50
2022-09-12T08:24:25.183Z,6.20
2022-09-12T08:29:32.164Z,4.60
2022-09-12T08:34:40.680Z,6.00
2022-09-12T08:39:48.063Z,5.70
2022-09-12T08:45:09.551Z,5.80
2022-09-12T08:50:23.409Z,4.60
2022-09-12T08:55:38.798Z,4.90
2022-09-12T09:00:56.019Z,4.50
2022-09-12T09:11:28.325Z,4.60
2022-09-12T09:16:38.858Z,3.60
2022-09-12T09:21:51.052Z,4.80
2022-09-12T09:27:14.318Z,4.00
2022-09-12T09:32:35.733Z,4.60
2022-09-12T09:38:02.117Z,3.90
2022-09-12T09:43:23.206Z,5.30
2022-09-12T09:48:32.511Z,5.50
2022-09-12T09:53:47.131Z,4.60
2022-09-12T09:58:54.067Z,4.20
2022-09-12T10:04:01.538Z,3.30
2022-09-12T10:09:19.887Z,2.80
2022-09-12T10:14:35.196Z,5.90
2022-09-12T10:19:42.791Z,4.30
2022-09-12T10:24:53.842Z,3.30
2022-09-12T10:30:08.005Z,3.30
2022-09-12T10:45:31.102Z,7.00
2022-09-12T10:50:46.702Z,3.90
2022-09-12T10:56:45.323Z,2.90
2022-09-12T11:02:17.267Z,8.30
2022-09-12T11:07:41.162Z,3.80
2022-09-12T11:13:17.400Z,3.80
2022-09-12T11:18:54.786Z,3.30
2022-09-12T11:30:12.623Z,3.50
2022-09-12T11:35:59.387Z,3.50
2022-09-12T11:41:45.047Z,3.90
2022-09-12T11:46:59.129Z,4.60
2022-09-12T11:52:27.496Z,3.20
2022-09-12T11:57:43.608Z,4.50
2022-09-12T12:03:05.423Z,3.30
2022-09-12T12:08:17.358Z,3.00
2022-09-12T12:13:28.239Z,3.40
2022-09-12T12:18:39.115Z,3.60
2022-09-12T12:24:12.804Z,3.10
2022-09-12T12:29:43.930Z,3.50
2022-09-12T12:34:51.497Z,4.30
2022-09-12T12:40:10.028Z,3.20
2022-09-12T12:45:48.943Z,3.80
2022-09-12T12:51:18.561Z,3.10
2022-09-12T12:56:47.145Z,3.60
2022-09-12T13:01:59.028Z,4.70
2022-09-12T13:07:12.283Z,4.00
2022-09-12T13:12:25.596Z,4.60
2022-09-12T13:17:40.327Z,4.70
2022-09-12T13:22:53.457Z,3.80
2022-09-12T13:36:57.045Z,2.80
2022-09-12T13:42:41.498Z,3.40
2022-09-12T13:47:55.399Z,2.80
2022-09-12T13:53:23.574Z,3.80
2022-09-12T13:58:33.250Z,4.30
2022-09-12T14:04:07.311Z,3.80
2022-09-12T14:09:31.727Z,4.00
2022-09-12T14:14:47.641Z,3.00
2022-09-12T14:20:00.801Z,3.60
2022-09-12T14:25:20.145Z,3.60
2022-09-12T14:30:30.677Z,4.20
2022-09-12T14:35:42.674Z,3.30
2022-09-12T14:40:53.093Z,3.40
2022-09-12T14:46:03.516Z,6.20
2022-09-12T14:51:19.812Z,5.60
2022-09-12T14:56:41.719Z,5.80
2022-09-12T15:01:49.857Z,3.40
2022-09-12T15:06:57.100Z,3.90
2022-09-12T15:12:05.981Z,3.70
2022-09-12T15:17:14.398Z,4.20
2022-09-12T15:22:26.350Z,5.80
2022-09-12T15:27:34.931Z,4.00
2022-09-12T15:32:45.343Z,3.30
2022-09-12T15:37:55.732Z,5.50
2022-09-12T15:43:03.437Z,5.30
2022-09-12T15:48:11.361Z,3.50
2022-09-12T15:53:20.477Z,5.20
2022-09-12T15:58:32.774Z,4.90
2022-09-12T16:03:40.854Z,4.20
2022-09-12T16:08:49.784Z,5.00
2022-09-12T16:14:03.440Z,5.40
2022-09-12T16:19:13.027Z,5.80
2022-09-12T16:24:41.432Z,5.10
2022-09-12T16:29:59.401Z,5.20
2022-09-12T16:35:13.290Z,4.30
2022-09-12T16:40:21.897Z,4.20
2022-09-12T16:45:32.865Z,5.30
2022-09-12T16:50:41.015Z,4.30
2022-09-12T16:55:55.713Z,4.30
2022-09-12T17:01:22.531Z,7.30
2022-09-12T17:12:00.351Z,6.00
2022-09-12T17:17:16.406Z,5.00
2022-09-12T17:22:24.736Z,6.30
2022-09-12T17:27:32.626Z,6.00
2022-09-12T17:32:41.236Z,7.30
2022-09-12T17:38:03.283Z,6.10
2022-09-12T17:43:22.865Z,8.20
2022-09-12T17:48:31.860Z,6.60
2022-09-12T17:53:49.228Z,7.40
2022-09-12T17:59:04.687Z,7.10
2022-09-12T18:04:14.001Z,6.90
2022-09-12T18:09:23.473Z,6.10
2022-09-12T18:14:31.825Z,8.00
2022-09-12T18:19:41.130Z,9.10
2022-09-12T18:30:22.223Z,8.90
2022-09-12T18:35:30.361Z,9.60
2022-09-12T18:40:42.017Z,9.30
2022-09-12T18:45:58.016Z,9.70
2022-09-12T18:51:08.453Z,9.90
2022-09-12T18:56:24.356Z,10.10
2022-09-12T19:02:06.622Z,14.70
2022-09-12T19:07:17.854Z,11.00
2022-09-12T19:12:43.475Z,11.00
2022-09-12T19:18:18.824Z,9.00
2022-09-12T19:23:26.433Z,12.40
2022-09-12T19:28:48.927Z,12.00
2022-09-12T19:34:00.051Z,11.60
2022-09-12T19:39:13.589Z,13.90
2022-09-12T19:44:28.292Z,25.40
2022-09-12T19:56:11.273Z,13.20
2022-09-12T20:01:25.472Z,13.10
2022-09-12T20:06:33.198Z,13.60
2022-09-12T20:11:41.178Z,11.90
2022-09-12T20:16:49.097Z,12.00
2022-09-12T20:21:57.832Z,11.90
2022-09-12T20:27:10.966Z,13.30
2022-09-12T20:32:31.119Z,13.00
2022-09-12T20:37:40.914Z,15.90
2022-09-12T20:42:53.661Z,14.40
2022-09-12T20:48:01.374Z,14.10
2022-09-12T20:53:13.797Z,13.60
2022-09-12T20:58:23.968Z,13.80
2022-09-12T21:03:32.301Z,12.40
2022-09-12T21:08:43.336Z,13.20
2022-09-12T21:13:54.850Z,12.70
2022-09-12T21:19:09.153Z,11.90
2022-09-12T21:24:18.508Z,11.80
2022-09-12T21:29:26.939Z,13.40
2022-09-12T21:34:35.522Z,22.50
2022-09-12T21:39:52.082Z,12.60
2022-09-12T21:45:00.827Z,12.50
2022-09-12T21:50:11.051Z,13.40
2022-09-12T21:55:29.566Z,13.40
2022-09-12T22:06:51.201Z,12.20
2022-09-12T22:11:59.635Z,11.00
2022-09-12T22:17:11.595Z,15.90
2022-09-12T22:22:52.310Z,14.50
2022-09-12T22:28:17.329Z,14.20
2022-09-12T22:33:30.358Z,15.70
2022-09-12T22:38:51.486Z,14.70
2022-09-12T22:44:08.605Z,14.80
2022-09-12T22:49:16.961Z,14.50
2022-09-12T22:54:27.362Z,14.50
2022-09-12T22:59:35.334Z,19.60
2022-09-12T23:04:45.097Z,13.30
2022-09-12T23:09:56.443Z,16.20
2022-09-12T23:15:07.383Z,16.00
2022-09-12T23:20:19.308Z,13.50
2022-09-12T23:25:27.778Z,15.70
2022-09-12T23:30:36.311Z,15.70
2022-09-12T23:35:44.743Z,14.60
2022-09-12T23:46:23.808Z,18.50
2022-09-12T23:51:36.033Z,15.00
2022-09-12T23:56:49.012Z,14.60
